Enter the Airport ICAO Code

Search by Airport or City

Current Weather

SBFL | Hercílio Luz International Airport

Florianópolis, Santa Catarina, Brazil

Last Update 16 Minutes Ago

Light Rain

Temperature of 23 ºC

Light to Moderate Winds from SouthEast

Temperature

23 ºC

Dew Point Temperature

21 ºC

Relative Humidity

88.58 %

Wind Direction

SouthEast (140º, Without Significant Variations)

Wind Velocity

17 km/h (09 kt)

Gusts

None

Visibility

Reduced to 8.0 Kilometers

Sea Level Pressure

1017 hPa (Hectopascals)

Layers of Clouds

60% to 90% of Sky Covered from 610 mts (2000 ft) Above Ground Level.

METAR SBFL 270300Z 14009KT 8000 -RA BKN020 23/21 Q1017

Weather Forecast

SBFL | Hercílio Luz International Airport

Florianópolis, Santa Catarina, Brazil

Forecast valid for the next 21 Hours

From now on it is expected:

Mostly Cloudy Sky

Moderate Winds from SouthEast

From now on it is expected 9 hours with intermittent periods of:

Rain

In 9 hours it is expected the begining of 6 hours with intermittent periods of:

Rain

Maximum Temperature

25 ºC in 12 Hours

Minimum Temperature

22 ºC in -2 Hours

TAF SBFL 262100Z 2700/2724 15010KT 9999 BKN015 BKN030 TN22/2701Z TX25/2715Z PROB40 TEMPO 2700/2712 6000 RA BKN011 BKN025 PROB40 TEMPO 2712/2718 8000 RA RMK PDW